Time;durP1;ratioP1;P1;durP2;ratioP2;P2;SDS_P1;SDS_P2;PMS_P1;PMS_P2;Temp;Humidity;BMP_temperature;BMP_pressure;BME280_temperature;BME280_humidity;BME280_pressure;Samples;Min_cycle;Max_cycle;Signal;HPM_P1;HPM_P2
2022/03/26 00:00:16;;;;;;;9.60;6.88;;;;;;;17.39;26.00;97634.41;5112004;28;20071;-33
2022/03/26 00:02:43;;;;;;;11.02;6.95;;;;;;;17.36;26.25;97631.78;5112408;28;20046;-32
2022/03/26 00:05:09;;;;;;;8.88;6.95;;;;;;;17.38;26.27;97626.63;5112236;28;20028;-33
2022/03/26 00:07:35;;;;;;;9.57;7.00;;;;;;;17.35;26.36;97630.25;5112133;28;20496;-32
2022/03/26 00:10:03;;;;;;;9.90;7.07;;;;;;;17.34;26.35;97629.50;5111981;28;20103;-33
2022/03/26 00:12:28;;;;;;;9.32;7.03;;;;;;;17.39;26.61;97633.66;5093608;28;20031;-33
2022/03/26 00:14:54;;;;;;;10.15;7.32;;;;;;;17.30;26.49;97628.09;5111952;28;20356;-33
2022/03/26 00:17:19;;;;;;;9.20;6.90;;;;;;;17.31;26.39;97633.09;5132165;27;20019;-32
2022/03/26 00:19:45;;;;;;;9.85;6.82;;;;;;;17.32;26.53;97626.41;5134519;27;20030;-32
2022/03/26 00:22:11;;;;;;;9.38;7.20;;;;;;;17.39;26.50;97628.16;5134695;27;20029;-32
2022/03/26 00:24:37;;;;;;;8.40;7.10;;;;;;;17.30;26.68;97622.59;5134394;27;20023;-32
2022/03/26 00:27:02;;;;;;;10.15;7.22;;;;;;;17.35;26.64;97625.53;5134428;27;20072;-33
2022/03/26 00:29:28;;;;;;;10.57;6.90;;;;;;;17.38;26.51;97619.19;5134303;28;20401;-32
2022/03/26 00:31:54;;;;;;;9.80;7.25;;;;;;;17.40;26.67;97621.47;5134476;28;20081;-33
2022/03/26 00:34:21;;;;;;;9.90;6.53;;;;;;;17.33;26.72;97616.97;5115709;28;20027;-32
2022/03/26 00:36:47;;;;;;;9.48;6.35;;;;;;;17.22;26.91;97622.06;5134674;28;20019;-33
2022/03/26 00:39:12;;;;;;;9.85;7.50;;;;;;;17.27;26.96;97627.00;5134313;28;20026;-33
2022/03/26 00:41:38;;;;;;;9.63;6.70;;;;;;;17.23;26.94;97618.09;5133958;28;20118;-33
2022/03/26 00:44:04;;;;;;;11.77;6.88;;;;;;;17.26;26.98;97616.47;5134315;28;20023;-32
2022/03/26 00:46:30;;;;;;;13.05;7.25;;;;;;;17.29;27.02;97616.34;5134307;28;20019;-32
2022/03/26 00:48:56;;;;;;;9.48;6.78;;;;;;;17.19;27.26;97615.47;5134264;28;20023;-32
2022/03/26 00:51:22;;;;;;;10.82;7.00;;;;;;;17.29;27.06;97616.34;5134274;28;20048;-32
2022/03/26 00:53:48;;;;;;;8.63;6.68;;;;;;;17.26;27.02;97609.00;5134111;28;20385;-32
2022/03/26 00:56:14;;;;;;;8.90;6.70;;;;;;;17.25;27.20;97618.44;5134236;28;20023;-32
2022/03/26 00:58:40;;;;;;;8.60;6.95;;;;;;;17.24;27.11;97603.97;5117644;27;20023;-32
2022/03/26 01:01:07;;;;;;;10.82;6.80;;;;;;;17.29;27.08;97604.63;5137983;27;20051;-32
2022/03/26 01:03:35;;;;;;;8.52;6.50;;;;;;;17.30;27.06;97609.66;5138070;27;20030;-32
2022/03/26 01:06:03;;;;;;;8.25;6.35;;;;;;;17.23;27.49;97607.13;5138183;27;20482;-32
2022/03/26 01:08:29;;;;;;;11.25;7.18;;;;;;;17.26;27.21;97603.53;5137997;27;20087;-32
2022/03/26 01:10:54;;;;;;;8.82;6.50;;;;;;;17.27;26.93;97602.31;5138053;27;20455;-32
2022/03/26 01:13:21;;;;;;;9.40;6.82;;;;;;;17.29;27.04;97594.41;5138116;27;20451;-33
2022/03/26 01:15:47;;;;;;;10.35;6.72;;;;;;;17.27;27.00;97596.84;5138026;27;20019;-32
2022/03/26 01:18:12;;;;;;;9.20;6.65;;;;;;;17.27;27.13;97590.56;5138069;27;20428;-32
2022/03/26 01:20:38;;;;;;;10.27;6.60;;;;;;;17.29;27.17;97601.88;5137815;27;20021;-33
2022/03/26 01:23:04;;;;;;;9.85;6.35;;;;;;;17.29;27.05;97596.41;5137735;27;20479;-32
2022/03/26 01:25:30;;;;;;;9.05;6.50;;;;;;;17.28;27.24;97594.84;5137794;27;20035;-32
2022/03/26 01:27:55;;;;;;;8.75;6.20;;;;;;;17.32;26.92;97599.00;5137531;27;20026;-32
2022/03/26 01:30:21;;;;;;;9.68;6.63;;;;;;;17.27;27.15;97594.09;5137680;27;20443;-32
2022/03/26 01:32:48;;;;;;;9.02;6.22;;;;;;;17.27;27.32;97593.31;5137657;27;20463;-32
2022/03/26 01:35:14;;;;;;;8.95;6.55;;;;;;;17.27;27.14;97580.38;5137574;27;20027;-32
2022/03/26 01:37:40;;;;;;;8.75;6.22;;;;;;;17.29;27.17;97579.94;5137500;27;20015;-32
2022/03/26 01:40:06;;;;;;;8.27;6.63;;;;;;;17.22;27.21;97584.44;5119131;27;20058;-33
2022/03/26 01:42:32;;;;;;;9.57;6.93;;;;;;;17.18;27.35;97583.78;5137419;27;20451;-33
2022/03/26 01:44:58;;;;;;;10.00;6.50;;;;;;;17.20;27.20;97578.63;5137564;27;20075;-33
2022/03/26 01:47:24;;;;;;;11.43;6.90;;;;;;;17.22;27.22;97572.72;5137580;27;20019;-33
2022/03/26 01:49:53;;;;;;;8.88;6.47;;;;;;;17.27;27.21;97574.91;5137446;27;20467;-35
2022/03/26 01:52:19;;;;;;;10.02;6.60;;;;;;;17.22;27.27;97572.72;5137218;27;20038;-32
2022/03/26 01:54:45;;;;;;;8.27;6.30;;;;;;;17.22;27.22;97575.44;5137083;27;20420;-33
2022/03/26 01:57:11;;;;;;;8.93;6.30;;;;;;;17.21;27.20;97587.63;5137215;27;20015;-33
2022/03/26 01:59:40;;;;;;;8.57;6.20;;;;;;;17.15;27.31;97583.91;5136919;27;20039;-32
2022/03/26 02:02:07;;;;;;;9.32;6.18;;;;;;;17.15;27.22;97583.91;5137107;27;20023;-32
2022/03/26 02:04:35;;;;;;;8.82;6.22;;;;;;;17.07;27.39;97586.09;5136967;27;20412;-33
2022/03/26 02:07:04;;;;;;;8.63;6.03;;;;;;;17.14;27.28;97582.38;5137029;27;20022;-32
2022/03/26 02:09:35;;;;;;;8.35;6.10;;;;;;;17.11;27.32;97580.50;5135859;27;20083;-33
2022/03/26 02:12:22;;;;;;;7.65;5.78;;;;;;;17.13;27.26;97581.63;5136837;27;20393;-33
2022/03/26 02:14:48;;;;;;;8.40;7.03;;;;;;;17.10;27.34;97585.22;5136372;27;20046;-32
2022/03/26 02:17:20;;;;;;;8.77;6.20;;;;;;;17.09;27.23;97585.66;5136784;27;20084;-32
2022/03/26 02:20:05;;;;;;;8.13;5.78;;;;;;;17.05;27.38;97585.03;5136690;27;20023;-32
2022/03/26 02:22:31;;;;;;;8.18;5.32;;;;;;;17.15;26.94;97584.69;5136828;27;20038;-32
2022/03/26 02:24:57;;;;;;;8.93;6.10;;;;;;;17.14;26.71;97582.38;5136676;27;20042;-32
2022/03/26 02:27:24;;;;;;;8.77;6.25;;;;;;;17.09;26.91;97577.44;5136692;27;20015;-33
2022/03/26 02:29:51;;;;;;;9.90;6.10;;;;;;;17.14;26.94;97580.41;5136448;27;20451;-33
2022/03/26 02:32:21;;;;;;;8.25;6.22;;;;;;;17.08;26.85;97590.38;5136673;27;20034;-32
2022/03/26 02:34:48;;;;;;;8.15;6.00;;;;;;;17.10;26.95;97578.97;5136476;27;20023;-32
2022/03/26 02:37:13;;;;;;;8.35;6.28;;;;;;;17.08;27.03;97582.16;5118255;27;20466;-32
2022/03/26 02:39:41;;;;;;;10.70;5.90;;;;;;;17.04;27.11;97584.28;5135977;27;20030;-33
2022/03/26 02:42:07;;;;;;;7.78;6.15;;;;;;;17.03;27.01;97581.97;5136303;27;20462;-32
2022/03/26 02:44:32;;;;;;;8.57;6.25;;;;;;;17.01;27.18;97584.38;5136144;27;20083;-32
2022/03/26 02:46:58;;;;;;;8.40;6.20;;;;;;;17.06;27.02;97586.56;5136164;27;20019;-33
2022/03/26 02:49:24;;;;;;;8.85;6.10;;;;;;;17.10;26.91;97581.72;5136105;27;20077;-32
2022/03/26 02:51:50;;;;;;;9.07;6.55;;;;;;;17.08;26.71;97582.16;5136158;27;20485;-33
2022/03/26 02:54:18;;;;;;;9.98;6.45;;;;;;;17.00;27.03;97585.59;5136143;27;20110;-33
2022/03/26 02:56:51;;;;;;;10.05;6.25;;;;;;;16.96;27.03;97582.19;5135944;27;20027;-33
2022/03/26 02:59:18;;;;;;;7.30;6.22;;;;;;;17.02;27.03;97592.16;5135973;27;20465;-33
2022/03/26 03:01:45;;;;;;;9.10;6.25;;;;;;;16.97;26.91;97589.97;5135980;27;20047;-32
2022/03/26 03:04:11;;;;;;;8.65;5.60;;;;;;;16.96;27.03;97588.44;5136209;27;20019;-32
2022/03/26 03:06:37;;;;;;;9.63;5.90;;;;;;;16.95;27.03;97592.38;5135799;27;20030;-32
2022/03/26 03:09:04;;;;;;;7.80;6.10;;;;;;;17.00;27.02;97588.31;5117283;27;20102;-32
2022/03/26 03:11:30;;;;;;;8.07;5.80;;;;;;;16.95;26.92;97583.38;5135719;27;20026;-32
2022/03/26 03:13:57;;;;;;;10.30;6.78;;;;;;;17.01;26.86;97584.38;5135644;27;20019;-32
2022/03/26 03:16:23;;;;;;;10.63;6.20;;;;;;;16.95;26.80;97580.66;5135742;27;20019;-32
2022/03/26 03:18:49;;;;;;;8.80;6.30;;;;;;;16.94;26.96;97581.88;5135592;27;20019;-33
2022/03/26 03:21:14;;;;;;;9.15;6.70;;;;;;;16.99;26.79;97586.78;5135336;27;20021;-33
2022/03/26 03:23:40;;;;;;;8.88;6.60;;;;;;;16.93;26.99;97583.84;5135395;27;20019;-32
2022/03/26 03:26:05;;;;;;;9.70;6.35;;;;;;;16.94;26.98;97584.63;5135661;27;20031;-32
2022/03/26 03:28:31;;;;;;;12.73;7.25;;;;;;;16.98;26.95;97588.00;5135468;27;20023;-33
2022/03/26 03:30:56;;;;;;;8.07;6.22;;;;;;;16.99;26.98;97586.78;5135329;27;20019;-34
2022/03/26 03:33:22;;;;;;;8.13;6.07;;;;;;;16.97;26.86;97595.44;5135405;27;20053;-32
2022/03/26 03:35:48;;;;;;;8.63;6.07;;;;;;;16.98;26.81;97585.25;5135242;27;20170;-32
2022/03/26 03:38:13;;;;;;;8.10;6.50;;;;;;;16.91;26.90;97585.50;5135101;27;20074;-32
2022/03/26 03:40:39;;;;;;;8.98;7.22;;;;;;;16.95;26.90;97591.59;5135127;27;20026;-32
2022/03/26 03:43:05;;;;;;;11.80;7.57;;;;;;;16.96;27.02;97591.16;5135135;27;20026;-33
2022/03/26 03:45:31;;;;;;;10.65;7.00;;;;;;;16.93;26.91;97596.78;5135127;27;20086;-32
2022/03/26 03:47:56;;;;;;;11.27;7.00;;;;;;;16.93;26.92;97594.81;5134893;27;20047;-32
2022/03/26 03:50:22;;;;;;;10.85;6.85;;;;;;;16.94;26.92;97585.34;5135350;27;20027;-33
2022/03/26 03:52:48;;;;;;;10.43;7.30;;;;;;;16.93;26.92;97583.84;5135090;27;20023;-33
2022/03/26 03:55:13;;;;;;;11.27;6.90;;;;;;;16.97;26.77;97591.94;5134863;27;20489;-32
2022/03/26 03:57:41;;;;;;;9.50;6.43;;;;;;;16.97;26.95;97592.69;5134857;27;20015;-32
2022/03/26 04:00:07;;;;;;;8.95;7.00;;;;;;;16.94;26.99;97592.84;5134781;27;20051;-32
2022/03/26 04:02:34;;;;;;;9.18;6.97;;;;;;;16.96;26.97;97593.13;5134745;27;20114;-32
2022/03/26 04:05:00;;;;;;;8.38;6.38;;;;;;;16.95;26.88;97591.59;5134757;27;20025;-32
2022/03/26 04:07:25;;;;;;;9.57;6.88;;;;;;;16.97;26.87;97587.22;5134790;27;20437;-32
2022/03/26 04:09:51;;;;;;;10.23;6.88;;;;;;;16.96;26.82;97593.13;5134552;27;20027;-33
2022/03/26 04:12:17;;;;;;;14.32;8.02;;;;;;;16.94;26.92;97587.34;5134949;27;20447;-32
2022/03/26 04:14:44;;;;;;;9.38;7.18;;;;;;;16.92;26.88;97581.53;5134554;27;20092;-33
2022/03/26 04:17:11;;;;;;;10.50;7.25;;;;;;;16.90;26.99;97583.97;5134754;27;20478;-32
2022/03/26 04:19:37;;;;;;;13.18;7.65;;;;;;;16.95;26.90;97578.66;5134790;27;20020;-32
2022/03/26 04:22:05;;;;;;;10.95;8.02;;;;;;;16.90;27.10;97578.47;5134718;27;20594;-32
2022/03/26 04:24:31;;;;;;;10.27;7.30;;;;;;;16.86;27.25;97579.34;5134413;27;20045;-32
2022/03/26 04:26:56;;;;;;;9.48;7.40;;;;;;;16.93;26.90;97591.31;5134593;27;20075;-32
2022/03/26 04:29:23;;;;;;;11.88;7.68;;;;;;;16.87;27.04;97586.38;5134087;27;20023;-33
2022/03/26 04:31:49;;;;;;;11.43;8.15;;;;;;;16.85;27.09;97582.53;5134466;28;20022;-33
2022/03/26 04:34:14;;;;;;;12.30;8.02;;;;;;;16.83;27.05;97584.94;5133642;27;20067;-32
2022/03/26 04:36:40;;;;;;;17.90;9.07;;;;;;;16.86;27.02;97584.81;5134283;28;20351;-32
2022/03/26 04:39:06;;;;;;;10.40;7.53;;;;;;;16.91;26.98;97586.25;5134284;28;20462;-32
2022/03/26 04:41:32;;;;;;;13.98;8.63;;;;;;;16.86;27.04;97589.53;5134439;28;20559;-32
2022/03/26 04:43:58;;;;;;;12.60;7.15;;;;;;;16.87;27.19;97593.81;5134244;28;20136;-33
2022/03/26 04:46:24;;;;;;;11.70;8.27;;;;;;;16.85;27.07;97586.03;5134218;28;20091;-32
2022/03/26 04:48:49;;;;;;;9.70;7.20;;;;;;;16.88;27.08;97587.13;5134437;28;20023;-32
2022/03/26 04:51:15;;;;;;;12.38;7.60;;;;;;;16.86;27.00;97589.53;5134135;28;20027;-32
2022/03/26 04:53:40;;;;;;;10.90;8.00;;;;;;;16.90;26.96;97583.97;5134144;28;20019;-32
2022/03/26 04:56:06;;;;;;;12.80;8.45;;;;;;;16.94;26.93;97595.56;5134160;28;20023;-33
2022/03/26 04:58:32;;;;;;;10.95;7.40;;;;;;;16.85;27.15;97588.78;5134061;28;20027;-32
2022/03/26 05:00:57;;;;;;;12.10;8.05;;;;;;;16.80;27.06;97594.06;5133847;28;20054;-32
2022/03/26 05:03:24;;;;;;;11.85;7.88;;;;;;;16.85;27.08;97597.00;5134129;28;20031;-32
2022/03/26 05:05:49;;;;;;;10.18;7.70;;;;;;;16.87;27.03;97600.06;5133926;28;20022;-32
2022/03/26 05:08:15;;;;;;;10.77;7.63;;;;;;;16.83;27.01;97602.13;5133985;28;20023;-32
2022/03/26 05:10:41;;;;;;;13.45;7.97;;;;;;;16.82;27.00;97606.09;5134079;28;20151;-32
2022/03/26 05:13:06;;;;;;;11.88;8.65;;;;;;;16.79;27.04;97604.25;5133903;28;20026;-32
2022/03/26 05:15:32;;;;;;;11.57;7.13;;;;;;;16.75;26.98;97609.06;5134082;28;20386;-32
2022/03/26 05:17:58;;;;;;;11.65;7.95;;;;;;;16.73;26.96;97616.16;5134053;28;20374;-32
2022/03/26 05:20:25;;;;;;;15.85;8.60;;;;;;;16.70;26.95;97611.56;5134094;28;20031;-32
2022/03/26 05:22:52;;;;;;;13.88;8.23;;;;;;;16.73;26.91;97600.50;5133869;28;20023;-32
2022/03/26 05:25:19;;;;;;;9.77;7.68;;;;;;;16.79;26.93;97601.50;5133902;28;20031;-32
2022/03/26 05:27:46;;;;;;;11.25;8.55;;;;;;;16.74;26.90;97610.25;5133761;28;20110;-32
2022/03/26 05:30:12;;;;;;;12.68;9.13;;;;;;;16.74;26.76;97610.25;5134236;28;20038;-32
2022/03/26 05:32:38;;;;;;;13.25;8.98;;;;;;;16.71;26.66;97608.38;5133991;28;20053;-32
2022/03/26 05:35:11;;;;;;;12.68;7.93;;;;;;;16.77;26.86;97616.84;5134059;28;20023;-33
2022/03/26 05:37:37;;;;;;;12.98;8.45;;;;;;;16.80;26.64;97622.22;5133779;28;20483;-32
2022/03/26 05:40:03;;;;;;;13.10;8.70;;;;;;;16.76;26.79;97616.06;5133958;28;20046;-32
2022/03/26 05:42:29;;;;;;;14.02;8.93;;;;;;;16.77;26.62;97614.09;5133841;28;20031;-32
2022/03/26 05:44:55;;;;;;;13.80;8.68;;;;;;;16.68;26.99;97617.50;5135801;27;20026;-32
2022/03/26 05:47:21;;;;;;;12.65;8.07;;;;;;;16.81;26.68;97623.72;5137368;27;20030;-32
2022/03/26 05:49:47;;;;;;;14.32;8.48;;;;;;;16.75;26.63;97616.50;5137358;27;20023;-32
2022/03/26 05:52:12;;;;;;;12.60;8.45;;;;;;;16.67;26.82;97620.69;5118712;27;20076;-32
2022/03/26 05:54:38;;;;;;;13.93;8.13;;;;;;;16.74;26.65;97621.22;5137383;27;20374;-33
2022/03/26 05:57:04;;;;;;;12.70;8.77;;;;;;;16.71;26.59;97621.31;5137497;27;20027;-32
2022/03/26 05:59:31;;;;;;;10.23;7.40;;;;;;;16.77;26.49;97619.56;5137353;27;20384;-32
2022/03/26 06:01:57;;;;;;;8.75;7.10;;;;;;;16.75;26.31;97616.50;5136911;27;20088;-32
2022/03/26 06:04:27;;;;;;;9.85;6.85;;;;;;;16.75;26.29;97622.75;5119129;27;20019;-32
2022/03/26 06:06:52;;;;;;;10.65;6.80;;;;;;;16.73;26.33;97618.91;5136982;27;20019;-34
2022/03/26 06:09:18;;;;;;;9.35;6.38;;;;;;;16.68;26.39;97622.22;5137006;27;20019;-33
2022/03/26 06:11:44;;;;;;;12.43;7.30;;;;;;;16.64;26.35;97621.53;5136920;27;20031;-32
2022/03/26 06:14:09;;;;;;;10.50;7.22;;;;;;;16.71;26.15;97626.78;5136839;27;20019;-32
2022/03/26 06:16:35;;;;;;;10.25;7.00;;;;;;;16.67;26.16;97623.41;5136847;27;20049;-33
2022/03/26 06:19:01;;;;;;;13.27;7.10;;;;;;;16.68;26.13;97619.47;5136754;27;20011;-32
2022/03/26 06:21:29;;;;;;;8.95;6.40;;;;;;;16.70;26.38;97623.28;5136608;27;20363;-32
2022/03/26 06:23:58;;;;;;;10.32;6.60;;;;;;;16.68;26.27;97622.97;5136850;27;20111;-32
2022/03/26 06:26:26;;;;;;;9.32;6.15;;;;;;;16.71;26.16;97613.88;5136877;27;20348;-33
2022/03/26 06:28:52;;;;;;;9.52;6.28;;;;;;;16.68;26.32;97622.22;5136695;27;20019;-32
2022/03/26 06:31:18;;;;;;;12.95;6.78;;;;;;;16.68;26.26;97624.94;5136773;27;20027;-32
2022/03/26 06:33:44;;;;;;;10.00;6.20;;;;;;;16.71;26.20;97619.34;5136544;27;20455;-32
2022/03/26 06:36:10;;;;;;;9.23;6.22;;;;;;;16.71;26.21;97624.81;5136265;27;20029;-32
2022/03/26 06:38:38;;;;;;;9.00;6.30;;;;;;;16.75;26.23;97622.75;5121615;27;20023;-33
2022/03/26 06:41:09;;;;;;;14.10;6.97;;;;;;;16.74;26.13;97632.16;5134312;27;20117;-33
2022/03/26 06:43:37;;;;;;;10.07;6.43;;;;;;;16.74;26.02;97632.16;5122504;27;20506;-32
2022/03/26 06:46:03;;;;;;;14.60;6.70;;;;;;;16.72;26.15;97631.06;5113569;28;20023;-32
2022/03/26 06:48:29;;;;;;;11.00;5.95;;;;;;;16.75;25.99;97622.75;5113286;28;20035;-32
2022/03/26 06:50:55;;;;;;;9.35;6.18;;;;;;;16.75;26.16;97633.72;5113514;28;20028;-33
2022/03/26 06:53:20;;;;;;;7.93;6.20;;;;;;;16.75;26.07;97633.72;5113704;28;20028;-33
2022/03/26 06:55:46;;;;;;;9.30;6.13;;;;;;;16.72;26.17;97639.28;5113037;28;20025;-33
2022/03/26 06:58:12;;;;;;;8.65;6.05;;;;;;;16.74;26.17;97637.66;5113513;28;20025;-32
2022/03/26 07:00:37;;;;;;;8.00;6.20;;;;;;;16.78;26.10;97638.31;5113065;28;20548;-33
2022/03/26 07:03:03;;;;;;;9.93;5.97;;;;;;;16.78;26.25;97638.31;5094877;28;20048;-33
2022/03/26 07:05:29;;;;;;;10.82;6.65;;;;;;;16.77;26.29;97639.53;5094899;28;20028;-32
2022/03/26 07:07:54;;;;;;;11.10;7.57;;;;;;;16.74;26.26;97647.84;5113242;28;20032;-32
2022/03/26 07:10:20;;;;;;;9.02;6.32;;;;;;;16.75;26.27;97647.41;5113221;28;20028;-33
2022/03/26 07:12:47;;;;;;;9.82;6.18;;;;;;;16.78;26.23;97649.28;5112692;28;20079;-34
2022/03/26 07:15:13;;;;;;;10.85;6.75;;;;;;;16.76;26.49;97648.94;5113098;28;20043;-32
2022/03/26 07:17:41;;;;;;;9.63;6.35;;;;;;;16.74;26.54;97645.88;5112903;28;20102;-32
2022/03/26 07:20:07;;;;;;;9.73;6.13;;;;;;;16.73;26.66;97658.03;5113009;28;20114;-32
2022/03/26 07:22:34;;;;;;;8.75;6.03;;;;;;;16.81;26.60;97648.38;5113076;28;20023;-33
2022/03/26 07:25:00;;;;;;;9.93;6.00;;;;;;;16.76;26.57;97659.13;5112817;28;20034;-32
2022/03/26 07:27:29;;;;;;;10.15;6.07;;;;;;;16.77;26.72;97653.22;5112905;28;20019;-32
2022/03/26 07:29:55;;;;;;;9.38;6.32;;;;;;;16.81;26.64;97662.06;5112830;28;20057;-32
2022/03/26 07:32:22;;;;;;;9.93;5.97;;;;;;;16.81;26.76;97653.84;5123380;27;20050;-32
2022/03/26 07:34:48;;;;;;;9.23;5.63;;;;;;;16.83;26.79;97656.94;5133178;27;20019;-32
2022/03/26 07:37:14;;;;;;;8.82;5.82;;;;;;;16.77;26.96;97668.88;5133001;27;20551;-32
2022/03/26 07:39:40;;;;;;;9.73;6.47;;;;;;;16.70;26.86;97664.38;5133206;27;20111;-32
2022/03/26 07:42:06;;;;;;;7.57;6.05;;;;;;;16.65;27.05;97666.91;5133221;27;20094;-32
2022/03/26 07:44:32;;;;;;;9.15;6.57;;;;;;;16.67;27.15;97664.50;5131359;27;20471;-33
2022/03/26 07:47:00;;;;;;;7.63;5.85;;;;;;;16.61;27.44;97666.19;5133182;27;20027;-33
2022/03/26 07:49:26;;;;;;;8.10;5.82;;;;;;;16.57;27.71;97669.03;5132749;27;20027;-32
2022/03/26 07:51:51;;;;;;;10.30;6.05;;;;;;;16.31;27.87;97668.25;5133042;27;20099;-32
2022/03/26 07:54:17;;;;;;;9.95;6.72;;;;;;;16.33;28.23;97673.25;5132825;27;20019;-32
2022/03/26 07:56:43;;;;;;;12.60;6.85;;;;;;;16.22;28.56;97667.31;5114580;27;20031;-33
2022/03/26 07:59:09;;;;;;;7.63;6.15;;;;;;;16.05;28.85;97667.38;5126476;27;20019;-32
2022/03/26 08:01:35;;;;;;;9.68;6.57;;;;;;;16.21;28.78;97665.78;5132213;27;20058;-32
2022/03/26 08:04:00;;;;;;;10.45;6.47;;;;;;;16.36;28.33;97661.44;5132750;27;20115;-32
2022/03/26 08:06:26;;;;;;;9.25;6.38;;;;;;;16.46;28.02;97666.59;5132634;27;20475;-33
2022/03/26 08:08:51;;;;;;;10.30;6.45;;;;;;;16.41;28.21;97666.41;5131741;27;20106;-33
2022/03/26 08:11:18;;;;;;;9.13;6.20;;;;;;;16.15;28.42;97669.06;5132538;27;20038;-32
2022/03/26 08:13:44;;;;;;;11.65;6.15;;;;;;;16.23;27.97;97674.31;5132503;27;20027;-32
2022/03/26 08:16:10;;;;;;;10.10;5.68;;;;;;;15.94;28.25;97675.13;5132657;27;20102;-32
2022/03/26 08:18:36;;;;;;;9.32;6.35;;;;;;;16.04;28.38;97663.13;5132724;27;20431;-32
2022/03/26 08:21:02;;;;;;;8.75;6.07;;;;;;;16.15;28.01;97674.53;5132577;27;20031;-32
2022/03/26 08:23:27;;;;;;;9.30;6.38;;;;;;;16.43;27.69;97677.69;5118344;27;20027;-34
2022/03/26 08:28:37;;;;;;;9.98;6.85;;;;;;;16.58;27.59;97683.50;5113918;28;20038;-32
2022/03/26 08:31:03;;;;;;;15.75;8.32;;;;;;;16.49;27.98;97681.41;5095593;28;20019;-32
2022/03/26 08:33:29;;;;;;;10.82;7.00;;;;;;;16.08;28.13;97674.72;5113837;28;20023;-32
2022/03/26 08:35:56;;;;;;;9.10;6.78;;;;;;;16.08;28.03;97671.97;5113378;28;20035;-33
2022/03/26 08:38:22;;;;;;;9.60;6.10;;;;;;;16.38;27.72;97680.94;5114020;28;20032;-32
2022/03/26 08:40:48;;;;;;;9.35;6.43;;;;;;;16.25;27.70;97677.41;5113657;28;20035;-33
2022/03/26 08:43:14;;;;;;;11.45;6.28;;;;;;;16.57;27.65;97682.72;5095374;28;20036;-32
2022/03/26 08:45:40;;;;;;;10.63;5.90;;;;;;;16.68;27.51;97683.25;5113668;28;20058;-32
2022/03/26 08:48:06;;;;;;;11.45;6.07;;;;;;;16.63;27.54;97672.81;5095177;28;20075;-32
2022/03/26 08:50:33;;;;;;;10.25;6.18;;;;;;;16.44;27.63;97674.47;5113596;28;20080;-32
2022/03/26 08:52:59;;;;;;;9.55;6.15;;;;;;;16.62;27.75;97676.75;5113631;28;20103;-32
2022/03/26 08:55:24;;;;;;;11.70;6.95;;;;;;;16.63;27.80;97683.00;5113565;28;20091;-33
2022/03/26 08:57:50;;;;;;;7.25;5.55;;;;;;;16.74;27.43;97683.44;5113629;28;20012;-32
2022/03/26 09:00:17;;;;;;;10.20;6.03;;;;;;;16.89;27.44;97681.81;5113387;28;20048;-33
2022/03/26 09:02:44;;;;;;;7.50;6.03;;;;;;;16.90;27.44;97683.38;5113356;28;20109;-32
2022/03/26 09:05:13;;;;;;;11.45;6.93;;;;;;;17.01;27.26;97681.06;5113503;28;20019;-33
2022/03/26 09:07:40;;;;;;;7.75;5.80;;;;;;;16.97;27.37;97677.66;5113359;28;20034;-32
2022/03/26 09:10:06;;;;;;;9.25;5.60;;;;;;;16.96;27.67;97686.31;5113317;28;20022;-32
2022/03/26 09:12:35;;;;;;;11.57;7.10;;;;;;;16.69;27.84;97678.53;5113261;28;20020;-32
2022/03/26 09:15:01;;;;;;;8.63;6.05;;;;;;;16.88;27.84;97683.03;5113358;28;20047;-32
2022/03/26 09:17:27;;;;;;;8.13;6.15;;;;;;;16.96;27.38;97676.13;5113503;28;20026;-32
2022/03/26 09:19:53;;;;;;;7.90;5.65;;;;;;;17.01;27.48;97683.03;5115129;28;20023;-33
2022/03/26 09:22:18;;;;;;;9.20;6.32;;;;;;;16.99;27.51;97680.72;5117143;28;20072;-32
2022/03/26 09:24:44;;;;;;;11.10;6.20;;;;;;;17.04;27.36;97687.66;5121083;27;20031;-32
2022/03/26 09:27:10;;;;;;;9.50;6.55;;;;;;;17.08;27.51;97682.81;5133679;27;20076;-32
2022/03/26 09:29:36;;;;;;;9.70;6.70;;;;;;;17.06;27.38;97685.97;5119423;27;20428;-33
2022/03/26 09:32:02;;;;;;;10.15;6.38;;;;;;;17.05;27.49;97672.75;5137858;27;20019;-34
2022/03/26 09:34:28;;;;;;;10.43;6.20;;;;;;;17.10;27.42;97680.41;5137371;27;20023;-33
2022/03/26 09:36:54;;;;;;;11.60;6.68;;;;;;;17.13;27.49;97674.03;5137257;27;20379;-32
2022/03/26 09:39:20;;;;;;;9.90;6.65;;;;;;;17.12;27.37;97673.28;5137764;27;20023;-32
2022/03/26 09:41:47;;;;;;;9.55;6.18;;;;;;;17.13;27.50;97671.31;5137811;27;20023;-33
2022/03/26 09:44:13;;;;;;;9.38;6.45;;;;;;;17.11;27.64;97665.50;5137416;27;20384;-32
2022/03/26 09:46:38;;;;;;;9.15;6.03;;;;;;;17.16;27.38;97668.47;5137697;27;20023;-32
2022/03/26 09:49:04;;;;;;;9.68;6.00;;;;;;;17.17;27.45;97669.22;5118760;27;20041;-32
2022/03/26 09:51:32;;;;;;;12.55;6.50;;;;;;;17.19;27.69;97662.06;5118661;27;20043;-32
2022/03/26 09:53:57;;;;;;;8.10;6.20;;;;;;;17.15;27.56;97672.41;5137483;27;20064;-32
2022/03/26 09:56:24;;;;;;;8.80;6.03;;;;;;;17.19;27.64;97673.03;5137208;27;20019;-32
2022/03/26 09:58:53;;;;;;;9.52;6.25;;;;;;;17.13;27.93;97668.56;5137088;27;20022;-33
2022/03/26 10:01:23;;;;;;;10.48;6.18;;;;;;;17.21;27.79;97667.13;5136983;27;20499;-33
2022/03/26 10:04:08;;;;;;;9.88;6.85;;;;;;;17.14;27.90;97664.63;5137016;27;20055;-32
2022/03/26 10:06:34;;;;;;;9.82;6.38;;;;;;;17.19;27.90;97661.31;5136875;27;20049;-33
2022/03/26 10:08:59;;;;;;;10.00;6.10;;;;;;;17.22;27.99;97665.91;5136886;27;20050;-32
2022/03/26 10:11:25;;;;;;;10.70;6.60;;;;;;;17.15;28.15;97658.69;5136956;27;20386;-33
2022/03/26 10:13:52;;;;;;;9.25;6.55;;;;;;;17.20;28.00;97652.66;5136720;27;20445;-32
2022/03/26 10:16:19;;;;;;;9.43;6.72;;;;;;;17.26;28.01;97661.09;5136465;27;20023;-33
2022/03/26 10:18:46;;;;;;;9.13;6.95;;;;;;;17.28;28.02;97657.91;5136696;27;20015;-32
2022/03/26 10:21:13;;;;;;;9.55;6.70;;;;;;;17.24;28.05;97663.50;5135488;27;20487;-32
2022/03/26 10:23:50;;;;;;;11.07;6.90;;;;;;;17.25;28.00;97659.56;5134264;27;20472;-33
2022/03/26 10:26:24;;;;;;;9.02;6.78;;;;;;;17.28;28.14;97658.69;5136506;27;20029;-33
2022/03/26 10:28:55;;;;;;;9.50;6.97;;;;;;;17.27;28.26;97664.59;5136527;27;20043;-32
2022/03/26 10:34:10;;;;;;;11.57;7.00;;;;;;;17.26;28.37;97658.34;5136743;27;20095;-33
2022/03/26 10:36:58;;;;;;;10.45;7.10;;;;;;;17.32;28.22;97650.31;5118163;27;20076;-32
2022/03/26 10:39:29;;;;;;;11.18;7.88;;;;;;;17.26;28.51;97666.56;5136261;27;20023;-32
2022/03/26 10:41:56;;;;;;;11.13;7.93;;;;;;;17.32;28.50;97653.06;5136340;27;20051;-33
2022/03/26 10:44:28;;;;;;;11.55;7.28;;;;;;;17.37;28.32;97649.78;5136167;27;20023;-32
2022/03/26 10:46:56;;;;;;;13.18;8.30;;;;;;;17.31;28.43;97649.56;5136181;27;20023;-32
2022/03/26 10:49:25;;;;;;;12.20;8.50;;;;;;;17.31;28.39;97644.06;5136148;27;20061;-32
2022/03/26 10:51:53;;;;;;;12.88;7.85;;;;;;;17.29;28.43;97648.47;5133971;27;20034;-33
2022/03/26 10:54:18;;;;;;;13.48;8.43;;;;;;;17.24;28.66;97647.81;5122653;27;20441;-33
2022/03/26 10:56:45;;;;;;;11.48;7.97;;;;;;;17.27;28.59;97651.66;5133938;27;20106;-32
2022/03/26 10:59:10;;;;;;;11.90;8.55;;;;;;;17.34;28.53;97645.94;5133911;27;20020;-32
2022/03/26 11:01:36;;;;;;;11.63;7.93;;;;;;;17.29;28.65;97649.25;5116570;27;20082;-34
2022/03/26 11:04:03;;;;;;;10.25;7.95;;;;;;;17.29;28.63;97643.78;5112646;27;20057;-32
2022/03/26 11:06:33;;;;;;;10.95;7.78;;;;;;;17.39;28.64;97641.88;5112812;28;20798;-32
2022/03/26 11:09:01;;;;;;;13.80;8.75;;;;;;;17.35;28.80;97636.50;5112921;28;20036;-33
2022/03/26 11:11:28;;;;;;;10.20;7.85;;;;;;;17.30;28.73;97634.34;5110007;28;20472;-32
2022/03/26 11:14:00;;;;;;;14.40;8.05;;;;;;;17.37;28.68;97634.09;5113083;28;20031;-32
2022/03/26 11:16:40;;;;;;;15.13;8.30;;;;;;;17.43;28.63;97629.56;5112878;28;20072;-32
2022/03/26 11:19:13;;;;;;;12.75;8.07;;;;;;;17.46;28.59;97612.25;5113271;28;20107;-32
2022/03/26 11:21:42;;;;;;;;;;;;;;;17.37;28.94;97620.38;5111860;28;20015;-32
2022/03/26 11:24:43;;;;;;;12.73;7.30;;;;;;;17.39;28.85;97608.97;5101432;28;19923;-32
2022/03/26 11:27:33;;;;;;;13.23;7.72;;;;;;;17.48;28.64;97606.31;5112314;28;20046;-33
2022/03/26 11:30:08;;;;;;;13.43;7.90;;;;;;;17.40;28.98;97619.50;5092275;28;20034;-33
2022/03/26 11:32:43;;;;;;;12.40;7.10;;;;;;;17.49;28.83;97608.63;5092693;28;20081;-32